NCAR-RAP Real-Time Weather Data

Output produced by METARs form (08 May 2021  16:23 UTC)
found at http://weather.rap.ucar.edu/surface/
 
KSAN 081551Z 20006KT 10SM BKN020 OVC026 17/11 A2999 RMK AO2 SLP154 T01720106
KSAN 081451Z 23007KT 10SM OVC024 17/11 A2998 RMK AO2 SLP151 T01720111 53015
KSAN 081351Z 15006KT 10SM OVC026 17/09 A2996 RMK AO2 SLP144 T01720094
KSAN 081251Z 13005KT 10SM OVC026 17/09 A2994 RMK AO2 SLP137 T01720094
KSAN 081151Z 13006KT 10SM OVC023 17/10 A2994 RMK AO2 SLP137 T01720100 10172 20167 56007
KSAN 081051Z 15005KT 10SM OVC021 17/10 A2994 RMK AO2 SLP138 T01720100
KSAN 080951Z 00000KT 10SM OVC023 17/11 A2995 RMK AO2 SLP140 T01670106
KSAN 080851Z 22004KT 10SM OVC018 17/11 A2996 RMK AO2 SLP144 T01720106 58009
KSAN 080751Z 26004KT 10SM OVC019 17/11 A2998 RMK AO2 SLP150 T01720106 402000161
KSAN 080651Z 19006KT 10SM OVC020 17/11 A2998 RMK AO2 SLP150 T01720106
KSAN 080551Z 18006KT 10SM OVC019 17/11 A2998 RMK AO2 SLP153 T01720106 10194 20172 51004
KSAN 080451Z 22004KT 10SM OVC020 17/11 A2998 RMK AO2 SLP153 T01720106
KSAN 080351Z VRB03KT 10SM OVC020 17/11 A2998 RMK AO2 SLP152 T01720106
KSAN 080251Z 25005KT 10SM BKN021 17/11 A2997 RMK AO2 SLP149 T01720106 55003
KSAN 080151Z 28006KT 10SM BKN020 17/11 A2997 RMK AO2 SLP149 T01720106
KSAN 080051Z 26007KT 10SM BKN021 18/11 A2997 RMK AO2 SLP150 T01830111
KSAN 072351Z 23007KT 10SM BKN022 19/11 A2998 RMK AO2 SLP152 T01890111 10200 20183 56016
KSAN 072342Z 23008KT 10SM BKN022 19/11 A2998 RMK AO2 T01890111
KSAN 072251Z 27009KT 10SM SCT023 19/11 A2999 RMK AO2 SLP154 T01940111
KSAN 072151Z 23008KT 200V280 10SM SCT023 20/11 A3001 RMK AO2 SLP161 T02000111
KSAN 072051Z 26009KT 10SM BKN023 19/11 A3003 RMK AO2 SLP167 BKN V SCT T01940106 58007
KSAN 072024Z 26007KT 240V300 10SM BKN023 19/11 A3003 RMK AO2 T01940106
KSAN 071951Z 27007G20KT 10SM SCT024 19/11 A3004 RMK AO2 SLP171 T01940106
KSAN 071851Z 26008KT 10SM SCT023 19/11 A3005 RMK AO2 SLP176 SCT V BKN T01890106
KSAN 071751Z 22004KT 10SM SCT024 18/10 A3005 RMK AO2 SLP175 SCT V BKN T01830100 10189 20161 52003
KSAN 071748Z 22006KT 10SM SCT024 18/10 A3005 RMK AO2 SCT V BKN
KSAN 071651Z 21006KT 10SM BKN024 18/11 A3005 RMK AO2 SLP175 T01830106
KSAN 071551Z VRB06KT 10SM BKN022 18/11 A3004 RMK AO2 SLP173 T01780106
KSAN 071451Z 21005KT 10SM BKN021 17/10 A3004 RMK AO2 SLP172 T01670100 53004
KSAN 071351Z 00000KT 10SM OVC020 17/10 A3004 RMK AO2 SLP171 T01670100
KSAN 071251Z 00000KT 10SM OVC020 16/10 A3003 RMK AO2 SLP169 T01610100
KSAN 071151Z 27004KT 10SM OVC019 17/10 A3003 RMK AO2 SLP168 T01670100 10167 20161 55002
KSAN 071051Z 26005KT 10SM OVC017 17/11 A3002 RMK AO2 SLP166 T01670106
KSAN 070951Z 25003KT 10SM OVC015 16/11 A3002 RMK AO2 SLP165 T01610106
KSAN 070851Z 25004KT 10SM OVC015 17/11 A3004 RMK AO2 SLP170 T01670106 58010
KSAN 070751Z 00000KT 10SM OVC017 16/11 A3005 RMK AO2 SLP177 T01610106 402000161
KSAN 070651Z 31003KT 10SM OVC016 17/11 A3006 RMK AO2 SLP180 T01670106
KSAN 070551Z 23003KT 10SM OVC018 17/11 A3007 RMK AO2 SLP181 T01670106 10178 20167 50000
KSAN 070451Z 19004KT 10SM OVC018 17/11 A3007 RMK AO2 SLP182 T01670111
KSAN 070351Z 24004KT 10SM OVC019 17/11 A3007 RMK AO2 SLP183 T01670106
KSAN 070251Z 20005KT 10SM OVC018 17/11 A3007 RMK AO2 SLP181 T01670106 53004
KSAN 070151Z 23005KT 10SM BKN018 17/11 A3006 RMK AO2 SLP177 T01670106
KSAN 070051Z 23008KT 10SM BKN018 18/11 A3006 RMK AO2 SLP177 T01780111
KSAN 062351Z 26006KT 10SM BKN018 18/11 A3005 RMK AO2 SLP176 T01780111 10200 20178 56006
KSAN 062251Z 22008KT 10SM BKN019 19/12 A3005 RMK AO2 SLP177 T01890117
KSAN 062151Z 25007KT 10SM BKN019 19/12 A3006 RMK AO2 SLP180 T01890117
KSAN 062051Z 21007G18KT 10SM BKN019 19/12 A3007 RMK AO2 SLP183 T01890117 50002
KSAN 061951Z 21010G17KT 10SM BKN020 20/12 A3007 RMK AO2 SLP183 T02000122
KSAN 061851Z 22008G18KT 10SM BKN019 19/12 A3007 RMK AO2 SLP181 T01890122
KSAN 061751Z 21007KT 10SM BKN016 18/12 A3007 RMK AO2 SLP180 T01830122 10189 20161 51003
KSAN 061651Z 24005KT 10SM OVC015 18/12 A3006 RMK AO2 SLP180 T01780122
KSAN 061646Z VRB04KT 10SM OVC015 18/12 A3006 RMK AO2